Time,TemperatureF,DewpointF,PressureIn,WindDirection,WindDirectionDegrees,WindSpeedMPH,WindSpeedGustMPH,Humidity,HourlyPrecipIn,Conditions,Clouds,dailyrainin,SoftwareType,DateUTC
2013-01-23 00:09:00,68.5,54.5,30.22,ENE,57,12.0,14.0,61,0.00,,,0.00,Wunderground v.1.15,2013-01-23 05:09:00,
2013-01-23 00:19:00,68.5,54.5,30.22,East,89,7.0,9.0,61,0.00,,,0.00,Wunderground v.1.15,2013-01-23 05:19:00,
2013-01-23 00:29:00,68.3,53.9,30.22,NE,40,6.0,6.0,60,0.00,,,0.00,Wunderground v.1.15,2013-01-23 05:29:00,
2013-01-23 00:39:00,68.3,53.4,30.21,NE,46,8.0,8.0,59,0.00,,,0.00,Wunderground v.1.15,2013-01-23 05:39:00,
2013-01-23 00:49:00,68.4,54.0,30.23,ENE,60,9.0,9.0,60,0.00,,,0.00,Wunderground v.1.15,2013-01-23 05:49:00,
2013-01-23 00:59:00,68.3,53.9,30.22,ENE,74,7.0,9.0,60,0.00,,,0.00,Wunderground v.1.15,2013-01-23 05:59:00,
2013-01-23 01:09:00,68.3,55.2,30.22,NNE,25,7.0,16.0,63,0.00,,,0.00,Wunderground v.1.15,2013-01-23 06:09:00,
2013-01-23 01:19:00,68.3,53.9,30.21,North,354,8.0,8.0,60,0.00,,,0.00,Wunderground v.1.15,2013-01-23 06:19:00,
2013-01-23 01:29:00,68.3,54.3,30.22,NNE,22,8.0,8.0,61,0.00,,,0.00,Wunderground v.1.15,2013-01-23 06:29:00,
2013-01-23 01:39:00,68.3,53.9,30.22,NNE,25,8.0,11.0,60,0.00,,,0.00,Wunderground v.1.15,2013-01-23 06:39:00,
2013-01-23 01:49:00,68.3,53.4,30.22,East,82,8.0,8.0,59,0.00,,,0.00,Wunderground v.1.15,2013-01-23 06:49:00,
2013-01-23 01:59:00,68.4,54.4,30.22,NNE,27,7.0,7.0,61,0.00,,,0.00,Wunderground v.1.15,2013-01-23 06:59:00,
2013-01-23 02:09:00,68.3,53.4,30.22,NE,49,7.0,7.0,59,0.00,,,0.00,Wunderground v.1.15,2013-01-23 07:09:00,
2013-01-23 02:19:00,68.3,53.4,30.21,NNE,27,8.0,8.0,59,0.00,,,0.00,Wunderground v.1.15,2013-01-23 07:19:00,
2013-01-23 02:29:00,68.3,52.5,30.21,NE,39,8.0,8.0,57,0.00,,,0.00,Wunderground v.1.15,2013-01-23 07:29:00,
2013-01-23 02:39:00,68.3,52.9,30.22,NE,44,8.0,8.0,58,0.00,,,0.00,Wunderground v.1.15,2013-01-23 07:39:00,
2013-01-23 02:49:00,68.2,53.3,30.22,ENE,69,7.0,7.0,59,0.00,,,0.00,Wunderground v.1.15,2013-01-23 07:49:00,
2013-01-23 02:59:00,68.0,53.1,30.22,East,94,7.0,7.0,59,0.00,,,0.00,Wunderground v.1.15,2013-01-23 07:59:00,
2013-01-23 03:09:00,68.0,52.2,30.22,NE,54,6.0,6.0,57,0.00,,,0.00,Wunderground v.1.15,2013-01-23 08:09:00,
2013-01-23 03:19:00,68.0,53.6,30.22,ENE,68,5.0,6.0,60,0.00,,,0.00,Wunderground v.1.15,2013-01-23 08:19:00,
2013-01-23 03:29:00,68.0,54.5,30.22,NNE,23,6.0,7.0,62,0.00,,,0.00,Wunderground v.1.15,2013-01-23 08:29:00,
2013-01-23 03:39:00,68.1,54.1,30.22,ENE,57,6.0,6.0,61,0.00,,,0.00,Wunderground v.1.15,2013-01-23 08:39:00,
2013-01-23 03:49:00,68.2,53.8,30.22,East,86,6.0,8.0,60,0.00,,,0.00,Wunderground v.1.15,2013-01-23 08:49:00,
2013-01-23 03:59:00,68.2,54.7,30.22,ENE,67,5.0,5.0,62,0.00,,,0.00,Wunderground v.1.15,2013-01-23 08:59:00,
2013-01-23 04:09:00,68.3,54.8,30.22,ENE,70,7.0,7.0,62,0.00,,,0.00,Wunderground v.1.15,2013-01-23 09:09:00,
2013-01-23 04:19:00,68.2,54.2,30.22,ENE,57,7.0,7.0,61,0.00,,,0.00,Wunderground v.1.15,2013-01-23 09:19:00,
2013-01-23 04:29:00,68.1,55.0,30.22,ENE,58,6.0,6.0,63,0.00,,,0.00,Wunderground v.1.15,2013-01-23 09:29:00,
2013-01-23 04:39:00,68.1,55.0,30.21,ENE,68,5.0,8.0,63,0.00,,,0.00,Wunderground v.1.15,2013-01-23 09:39:00,
2013-01-23 04:49:00,68.2,54.7,30.21,NE,47,7.0,8.0,62,0.00,,,0.00,Wunderground v.1.15,2013-01-23 09:49:00,
2013-01-23 04:59:00,68.3,55.2,30.21,NE,53,7.0,7.0,63,0.00,,,0.00,Wunderground v.1.15,2013-01-23 09:59:00,
2013-01-23 05:09:00,68.2,55.1,30.22,East,82,5.0,6.0,63,0.00,,,0.00,Wunderground v.1.15,2013-01-23 10:09:00,
2013-01-23 05:19:00,68.2,54.7,30.22,NE,51,6.0,10.0,62,0.00,,,0.00,Wunderground v.1.15,2013-01-23 10:19:00,
2013-01-23 05:29:00,68.2,54.2,30.22,NE,47,7.0,7.0,61,0.00,,,0.00,Wunderground v.1.15,2013-01-23 10:29:00,
2013-01-23 05:39:00,68.3,53.4,30.22,NE,37,7.0,12.0,59,0.00,,,0.00,Wunderground v.1.15,2013-01-23 10:39:00,
2013-01-23 05:49:00,68.3,52.9,30.23,NE,46,6.0,6.0,58,0.00,,,0.00,Wunderground v.1.15,2013-01-23 10:49:00,
2013-01-23 05:59:00,68.4,53.5,30.23,ENE,67,7.0,7.0,59,0.00,,,0.00,Wunderground v.1.15,2013-01-23 10:59:00,
2013-01-23 06:09:00,68.3,53.9,30.24,NNE,16,5.0,6.0,60,0.00,,,0.00,Wunderground v.1.15,2013-01-23 11:09:00,
2013-01-23 06:19:00,68.3,53.4,30.24,ENE,72,5.0,5.0,59,0.00,,,0.00,Wunderground v.1.15,2013-01-23 11:19:00,
2013-01-23 06:29:00,68.3,53.4,30.25,NE,41,5.0,7.0,59,0.00,,,0.00,Wunderground v.1.15,2013-01-23 11:29:00,
2013-01-23 06:39:00,68.3,54.3,30.24,ENE,60,6.0,7.0,61,0.00,,,0.00,Wunderground v.1.15,2013-01-23 11:39:00,
2013-01-23 06:49:00,68.4,53.0,30.25,NE,41,7.0,8.0,58,0.00,,,0.00,Wunderground v.1.15,2013-01-23 11:49:00,
2013-01-23 06:59:00,68.4,53.5,30.25,ENE,60,6.0,6.0,59,0.00,,,0.00,Wunderground v.1.15,2013-01-23 11:59:00,
2013-01-23 07:09:00,68.4,53.0,30.25,ENE,57,6.0,7.0,58,0.00,,,0.00,Wunderground v.1.15,2013-01-23 12:09:00,
2013-01-23 07:19:00,66.6,54.5,30.26,NE,37,5.0,5.0,65,0.00,,,0.00,Wunderground v.1.15,2013-01-23 12:19:00,
2013-01-23 07:29:00,64.8,54.8,30.26,NNW,334,3.0,3.0,70,0.00,,,0.00,Wunderground v.1.15,2013-01-23 12:29:00,
2013-01-23 07:40:00,63.9,55.1,30.26,NNW,338,4.0,4.0,73,0.00,,,0.00,Wunderground v.1.15,2013-01-23 12:40:00,
2013-01-23 07:50:00,63.3,54.9,30.26,NW,308,4.0,4.0,74,0.00,,,0.00,Wunderground v.1.15,2013-01-23 12:50:00,
2013-01-23 08:00:00,63.0,54.9,30.28,NW,314,4.0,10.0,75,0.00,,,0.00,Wunderground v.1.15,2013-01-23 13:00:00,
2013-01-23 08:10:00,62.8,55.1,30.28,NW,326,5.0,5.0,76,0.00,,,0.00,Wunderground v.1.15,2013-01-23 13:10:00,
2013-01-23 08:20:00,62.7,55.4,30.28,NNW,348,5.0,9.0,77,0.00,,,0.00,Wunderground v.1.15,2013-01-23 13:20:00,
2013-01-23 08:30:00,62.7,55.4,30.28,NNW,346,3.0,5.0,77,0.00,,,0.00,Wunderground v.1.15,2013-01-23 13:30:00,
2013-01-23 08:40:00,62.9,55.6,30.29,NW,309,3.0,5.0,77,0.00,,,0.00,Wunderground v.1.15,2013-01-23 13:40:00,
2013-01-23 08:50:00,63.1,55.8,30.29,North,354,5.0,5.0,77,0.00,,,0.00,Wunderground v.1.15,2013-01-23 13:50:00,
2013-01-23 09:00:00,63.9,56.5,30.30,NNW,344,5.0,5.0,77,0.00,,,0.00,Wunderground v.1.15,2013-01-23 14:00:00,
2013-01-23 09:10:00,64.8,56.7,30.30,NNE,32,4.0,6.0,75,0.00,,,0.00,Wunderground v.1.15,2013-01-23 14:10:00,
2013-01-23 09:20:00,65.3,56.4,30.30,North,358,5.0,5.0,73,0.00,,,0.00,Wunderground v.1.15,2013-01-23 14:20:00,
2013-01-23 09:30:00,65.6,56.7,30.30,NNW,345,5.0,5.0,73,0.00,,,0.00,Wunderground v.1.15,2013-01-23 14:30:00,
2013-01-23 09:40:00,65.9,57.0,30.30,North,9,4.0,4.0,73,0.00,,,0.00,Wunderground v.1.15,2013-01-23 14:40:00,
2013-01-23 09:50:00,66.1,56.8,30.31,NW,316,4.0,4.0,72,0.00,,,0.00,Wunderground v.1.15,2013-01-23 14:50:00,
2013-01-23 10:00:00,66.6,57.7,30.31,NW,321,4.0,6.0,73,0.00,,,0.00,Wunderground v.1.15,2013-01-23 15:00:00,
2013-01-23 10:10:00,66.5,57.2,30.31,NW,315,6.0,6.0,72,0.00,,,0.00,Wunderground v.1.15,2013-01-23 15:10:00,
2013-01-23 10:20:00,66.5,57.2,30.31,NNW,342,5.0,6.0,72,0.00,,,0.00,Wunderground v.1.15,2013-01-23 15:20:00,
2013-01-23 10:30:00,67.0,57.7,30.31,NE,43,5.0,5.0,72,0.00,,,0.00,Wunderground v.1.15,2013-01-23 15:30:00,
2013-01-23 10:40:00,67.8,58.1,30.31,NW,314,4.0,4.0,71,0.00,,,0.00,Wunderground v.1.15,2013-01-23 15:40:00,
2013-01-23 10:50:00,68.1,58.3,30.31,NE,43,5.0,5.0,71,0.00,,,0.00,Wunderground v.1.15,2013-01-23 15:50:00,
2013-01-23 11:00:00,69.0,58.4,30.31,NNE,26,5.0,5.0,69,0.00,,,0.00,Wunderground v.1.15,2013-01-23 16:00:00,
2013-01-23 11:10:00,69.7,57.8,30.31,North,356,6.0,6.0,66,0.00,,,0.00,Wunderground v.1.15,2013-01-23 16:10:00,
2013-01-23 11:20:00,69.6,58.2,30.30,ENE,67,5.0,5.0,67,0.00,,,0.00,Wunderground v.1.15,2013-01-23 16:20:00,
2013-01-23 11:30:00,70.3,57.1,30.30,North,11,6.0,8.0,63,0.00,,,0.00,Wunderground v.1.15,2013-01-23 16:30:00,
2013-01-23 11:40:00,70.7,57.5,30.29,NNW,342,7.0,7.0,63,0.00,,,0.00,Wunderground v.1.15,2013-01-23 16:40:00,
2013-01-23 11:50:00,71.2,57.5,30.29,North,1,6.0,7.0,62,0.00,,,0.00,Wunderground v.1.15,2013-01-23 16:50:00,
2013-01-23 12:00:00,71.8,54.8,30.29,ENE,57,7.0,7.0,55,0.00,,,0.00,Wunderground v.1.15,2013-01-23 17:00:00,
2013-01-23 12:10:00,72.3,54.7,30.28,East,79,7.0,8.0,54,0.00,,,0.00,Wunderground v.1.15,2013-01-23 17:10:00,
2013-01-23 12:20:00,72.2,54.1,30.28,NE,54,9.0,9.0,53,0.00,,,0.00,Wunderground v.1.15,2013-01-23 17:20:00,
2013-01-23 12:30:00,72.2,54.1,30.27,NNE,32,8.0,8.0,53,0.00,,,0.00,Wunderground v.1.15,2013-01-23 17:30:00,
2013-01-23 12:40:00,72.9,55.8,30.27,ENE,59,7.0,8.0,55,0.00,,,0.00,Wunderground v.1.15,2013-01-23 17:40:00,
2013-01-23 12:50:00,72.5,54.4,30.26,ENE,65,7.0,8.0,53,0.00,,,0.00,Wunderground v.1.15,2013-01-23 17:50:00,
2013-01-23 13:00:00,72.6,54.0,30.26,NE,44,8.0,8.0,52,0.00,,,0.00,Wunderground v.1.15,2013-01-23 18:00:00,
2013-01-23 13:10:00,72.8,54.7,30.26,NNW,338,7.0,8.0,53,0.00,,,0.00,Wunderground v.1.15,2013-01-23 18:10:00,
2013-01-23 13:20:00,72.6,55.0,30.26,East,89,6.0,6.0,54,0.00,,,0.00,Wunderground v.1.15,2013-01-23 18:20:00,
2013-01-23 13:30:00,72.0,53.9,30.25,NE,34,8.0,8.0,53,0.00,,,0.00,Wunderground v.1.15,2013-01-23 18:30:00,
2013-01-23 13:40:00,71.4,54.9,30.25,NE,45,7.0,7.0,56,0.00,,,0.00,Wunderground v.1.15,2013-01-23 18:40:00,
2013-01-23 13:50:00,71.1,55.1,30.25,NNE,23,7.0,7.0,57,0.00,,,0.00,Wunderground v.1.15,2013-01-23 18:50:00,
2013-01-23 14:00:00,72.0,54.4,30.24,NNE,29,7.0,8.0,54,0.00,,,0.00,Wunderground v.1.15,2013-01-23 19:00:00,
2013-01-23 14:10:00,71.8,55.3,30.24,ENE,78,8.0,12.0,56,0.00,,,0.00,Wunderground v.1.15,2013-01-23 19:10:00,
2013-01-23 14:20:00,72.3,56.7,30.25,ENE,62,7.0,18.0,58,0.00,,,0.00,Wunderground v.1.15,2013-01-23 19:20:00,
2013-01-23 14:30:00,71.4,56.3,30.24,NNE,27,8.0,8.0,59,0.00,,,0.00,Wunderground v.1.15,2013-01-23 19:30:00,
2013-01-23 14:40:00,72.1,57.0,30.24,East,85,7.0,7.0,59,0.00,,,0.00,Wunderground v.1.15,2013-01-23 19:40:00,
2013-01-23 14:50:00,72.0,56.4,30.24,ENE,76,7.0,8.0,58,0.00,,,0.00,Wunderground v.1.15,2013-01-23 19:50:00,
2013-01-23 15:00:00,72.3,57.2,30.24,NNE,20,7.0,7.0,59,0.00,,,0.00,Wunderground v.1.15,2013-01-23 20:00:00,
2013-01-23 15:10:00,72.0,56.4,30.24,East,82,7.0,7.0,58,0.00,,,0.00,Wunderground v.1.15,2013-01-23 20:10:00,
2013-01-23 15:20:00,72.0,56.4,30.24,ESE,112,7.0,7.0,58,0.00,,,0.00,Wunderground v.1.15,2013-01-23 20:20:00,
2013-01-23 15:30:00,72.3,57.2,30.24,NE,46,6.0,6.0,59,0.00,,,0.00,Wunderground v.1.15,2013-01-23 20:30:00,
2013-01-23 15:40:00,71.9,55.8,30.24,NE,39,6.0,6.0,57,0.00,,,0.00,Wunderground v.1.15,2013-01-23 20:40:00,
2013-01-23 15:50:00,71.4,55.4,30.24,ENE,63,7.0,7.0,57,0.00,,,0.00,Wunderground v.1.15,2013-01-23 20:50:00,
2013-01-23 16:00:00,71.7,55.7,30.25,NE,51,7.0,9.0,57,0.00,,,0.00,Wunderground v.1.15,2013-01-23 21:00:00,
2013-01-23 16:10:00,71.4,55.4,30.25,East,98,7.0,7.0,57,0.00,,,0.00,Wunderground v.1.15,2013-01-23 21:10:00,
2013-01-23 16:20:00,71.0,55.5,30.25,NNE,20,7.0,10.0,58,0.00,,,0.00,Wunderground v.1.15,2013-01-23 21:20:00,
2013-01-23 16:30:00,71.3,55.3,30.25,East,89,6.0,7.0,57,0.00,,,0.00,Wunderground v.1.15,2013-01-23 21:30:00,
2013-01-23 16:40:00,71.0,55.0,30.26,ENE,72,7.0,7.0,57,0.00,,,0.00,Wunderground v.1.15,2013-01-23 21:40:00,
2013-01-23 16:50:00,70.8,55.3,30.25,NE,46,6.0,7.0,58,0.00,,,0.00,Wunderground v.1.15,2013-01-23 21:50:00,
2013-01-23 17:00:00,70.8,55.8,30.25,East,81,5.0,5.0,59,0.00,,,0.00,Wunderground v.1.15,2013-01-23 22:00:00,
2013-01-23 17:10:00,70.7,55.2,30.26,NE,46,5.0,8.0,58,0.00,,,0.00,Wunderground v.1.15,2013-01-23 22:10:00,
2013-01-23 17:20:00,70.3,54.3,30.26,NE,43,6.0,6.0,57,0.00,,,0.00,Wunderground v.1.15,2013-01-23 22:20:00,
2013-01-23 17:30:00,70.0,54.5,30.26,NNE,27,5.0,6.0,58,0.00,,,0.00,Wunderground v.1.15,2013-01-23 22:30:00,
2013-01-23 17:40:00,69.9,54.9,30.25,ENE,61,5.0,5.0,59,0.00,,,0.00,Wunderground v.1.15,2013-01-23 22:40:00,
2013-01-23 17:50:00,69.4,54.9,30.25,ENE,77,6.0,6.0,60,0.00,,,0.00,Wunderground v.1.15,2013-01-23 22:50:00,
2013-01-23 18:00:00,69.1,55.1,30.25,ENE,77,4.0,9.0,61,0.00,,,0.00,Wunderground v.1.15,2013-01-23 23:00:00,
2013-01-23 18:10:00,69.0,55.0,30.25,NE,51,6.0,10.0,61,0.00,,,0.00,Wunderground v.1.15,2013-01-23 23:10:00,
2013-01-23 18:20:00,68.9,54.9,30.25,ENE,64,5.0,5.0,61,0.00,,,0.00,Wunderground v.1.15,2013-01-23 23:20:00,
2013-01-23 18:30:00,68.7,54.7,30.26,NE,34,5.0,5.0,61,0.00,,,0.00,Wunderground v.1.15,2013-01-23 23:30:00,
2013-01-23 18:40:00,68.6,55.1,30.26,East,94,4.0,4.0,62,0.00,,,0.00,Wunderground v.1.15,2013-01-23 23:40:00,
2013-01-23 18:50:00,68.6,55.1,30.26,NE,43,4.0,5.0,62,0.00,,,0.00,Wunderground v.1.15,2013-01-23 23:50:00,
2013-01-23 19:00:00,68.6,55.1,30.26,NNE,33,4.0,4.0,62,0.00,,,0.00,Wunderground v.1.15,2013-01-24 00:00:00,
2013-01-23 19:10:00,68.6,55.1,30.26,ENE,62,3.0,4.0,62,0.00,,,0.00,Wunderground v.1.15,2013-01-24 00:10:00,
2013-01-23 19:20:00,68.6,55.1,30.27,NE,47,4.0,4.0,62,0.00,,,0.00,Wunderground v.1.15,2013-01-24 00:20:00,
2013-01-23 19:30:00,68.7,55.2,30.27,ENE,65,4.0,5.0,62,0.00,,,0.00,Wunderground v.1.15,2013-01-24 00:30:00,
2013-01-23 19:40:00,68.7,55.6,30.27,East,89,4.0,4.0,63,0.00,,,0.00,Wunderground v.1.15,2013-01-24 00:40:00,
2013-01-23 19:50:00,68.5,55.4,30.28,NNE,13,2.0,4.0,63,0.00,,,0.00,Wunderground v.1.15,2013-01-24 00:50:00,
2013-01-23 20:00:00,68.7,55.2,30.28,North,11,3.0,4.0,62,0.00,,,0.00,Wunderground v.1.15,2013-01-24 01:00:00,
2013-01-23 20:10:00,67.4,57.7,30.28,NNE,23,5.0,5.0,71,0.00,,,0.00,Wunderground v.1.15,2013-01-24 01:10:00,
2013-01-23 20:20:00,66.6,58.1,30.28,NNW,345,4.0,4.0,74,0.00,,,0.00,Wunderground v.1.15,2013-01-24 01:20:00,
2013-01-23 20:30:00,65.9,58.1,30.29,NNW,348,5.0,5.0,76,0.00,,,0.00,Wunderground v.1.15,2013-01-24 01:30:00,
2013-01-23 20:40:00,65.3,57.9,30.29,NE,47,6.0,6.0,77,0.00,,,0.00,Wunderground v.1.15,2013-01-24 01:40:00,
2013-01-23 20:50:00,64.9,57.5,30.29,NNW,346,4.0,7.0,77,0.00,,,0.00,Wunderground v.1.15,2013-01-24 01:50:00,
2013-01-23 21:00:00,64.5,57.5,30.29,NW,323,4.0,4.0,78,0.00,,,0.00,Wunderground v.1.15,2013-01-24 02:00:00,
2013-01-23 21:10:00,64.1,57.5,30.29,NW,314,3.0,5.0,79,0.00,,,0.00,Wunderground v.1.15,2013-01-24 02:10:00,
2013-01-23 21:20:00,63.7,57.1,30.29,NNW,328,3.0,3.0,79,0.00,,,0.00,Wunderground v.1.15,2013-01-24 02:20:00,
2013-01-23 21:30:00,63.4,56.8,30.29,North,356,3.0,4.0,79,0.00,,,0.00,Wunderground v.1.15,2013-01-24 02:30:00,
2013-01-23 21:40:00,63.1,56.8,30.30,NW,326,3.0,3.0,80,0.00,,,0.00,Wunderground v.1.15,2013-01-24 02:40:00,
2013-01-23 21:50:00,62.9,56.6,30.29,WNW,284,3.0,3.0,80,0.00,,,0.00,Wunderground v.1.15,2013-01-24 02:50:00,
2013-01-23 22:00:00,62.7,56.4,30.30,NNW,340,3.0,4.0,80,0.00,,,0.00,Wunderground v.1.15,2013-01-24 03:00:00,
2013-01-23 22:10:00,62.6,56.3,30.29,North,352,4.0,5.0,80,0.00,,,0.00,Wunderground v.1.15,2013-01-24 03:10:00,
2013-01-23 22:20:00,62.4,56.1,30.29,North,6,3.0,3.0,80,0.00,,,0.00,Wunderground v.1.15,2013-01-24 03:20:00,
2013-01-23 22:30:00,62.3,56.0,30.29,North,11,3.0,3.0,80,0.00,,,0.00,Wunderground v.1.15,2013-01-24 03:30:00,
2013-01-23 22:40:00,62.1,55.9,30.29,NNW,348,3.0,3.0,80,0.00,,,0.00,Wunderground v.1.15,2013-01-24 03:40:00,
2013-01-23 22:50:00,61.9,55.7,30.29,NW,326,2.0,3.0,80,0.00,,,0.00,Wunderground v.1.15,2013-01-24 03:50:00,
2013-01-23 23:00:00,61.7,55.8,30.29,NNW,338,2.0,2.0,81,0.00,,,0.00,Wunderground v.1.15,2013-01-24 04:00:00,
2013-01-23 23:10:00,61.4,55.5,30.28,NW,318,2.0,2.0,81,0.00,,,0.00,Wunderground v.1.15,2013-01-24 04:10:00,
2013-01-23 23:20:00,61.2,55.7,30.28,NNE,21,1.0,3.0,82,0.00,,,0.00,Wunderground v.1.15,2013-01-24 04:20:00,
2013-01-23 23:30:00,61.0,55.5,30.28,NNW,332,1.0,2.0,82,0.00,,,0.00,Wunderground v.1.15,2013-01-24 04:30:00,
2013-01-23 23:40:00,60.9,55.4,30.28,NW,318,1.0,1.0,82,0.00,,,0.00,Wunderground v.1.15,2013-01-24 04:40:00,
2013-01-23 23:50:00,60.7,55.5,30.28,NNW,328,1.0,1.0,83,0.00,,,0.00,Wunderground v.1.15,2013-01-24 04:50:00,